createdAt,value
2019-05-07T00:00:49.551Z,11.10
2019-05-07T00:03:21.929Z,7.87
2019-05-07T00:05:53.928Z,11.03
2019-05-07T00:08:24.171Z,9.53
2019-05-07T00:10:54.499Z,10.78
2019-05-07T00:13:25.005Z,10.53
2019-05-07T00:15:56.412Z,13.88
2019-05-07T00:18:26.812Z,13.45
2019-05-07T00:20:57.288Z,9.48
2019-05-07T00:23:27.594Z,10.90
2019-05-07T00:25:57.980Z,12.45
2019-05-07T00:28:28.378Z,18.37
2019-05-07T00:30:58.839Z,12.33
2019-05-07T00:33:29.338Z,11.35
2019-05-07T00:36:02.614Z,14.68
2019-05-07T00:38:34.636Z,12.82
2019-05-07T00:41:09.350Z,11.22
2019-05-07T00:43:42.757Z,12.95
2019-05-07T00:46:14.430Z,14.20
2019-05-07T00:48:44.849Z,10.90
2019-05-07T00:51:33.357Z,12.63
2019-05-07T00:54:05.315Z,13.13
2019-05-07T00:56:35.765Z,9.30
2019-05-07T00:59:05.973Z,9.95
2019-05-07T01:01:36.596Z,12.25
2019-05-07T01:04:06.995Z,11.85
2019-05-07T01:06:37.419Z,14.33
2019-05-07T01:09:08.316Z,15.15
2019-05-07T01:11:38.781Z,14.65
2019-05-07T01:14:09.196Z,13.78
2019-05-07T01:16:42.087Z,13.40
2019-05-07T01:19:12.743Z,18.82
2019-05-07T01:21:43.464Z,12.00
2019-05-07T01:24:13.911Z,19.05
2019-05-07T01:26:44.382Z,16.50
2019-05-07T01:29:14.798Z,12.68
2019-05-07T01:31:46.830Z,17.82
2019-05-07T01:34:18.806Z,12.78
2019-05-07T01:36:49.269Z,12.23
2019-05-07T01:39:19.687Z,12.90
2019-05-07T01:41:52.317Z,7.33
2019-05-07T01:44:22.283Z,6.47
2019-05-07T01:46:53.023Z,6.10
2019-05-07T01:49:24.072Z,10.32
2019-05-07T01:51:54.619Z,6.97
2019-05-07T01:54:24.942Z,8.63
2019-05-07T01:56:55.294Z,6.80
2019-05-07T01:59:25.599Z,7.55
2019-05-07T02:01:57.557Z,8.15
2019-05-07T02:04:29.457Z,6.42
2019-05-07T02:07:13.340Z,7.92
2019-05-07T02:09:45.207Z,6.47
2019-05-07T02:12:23.121Z,7.97
2019-05-07T02:14:53.441Z,12.33
2019-05-07T02:17:24.098Z,11.12
2019-05-07T02:19:54.502Z,12.10
2019-05-07T02:22:24.955Z,15.75
2019-05-07T02:24:55.377Z,9.95
2019-05-07T02:27:25.727Z,9.40
2019-05-07T02:29:56.042Z,8.78
2019-05-07T02:32:26.398Z,10.40
2019-05-07T02:34:56.807Z,9.73
2019-05-07T02:37:37.647Z,14.40
2019-05-07T02:40:04.466Z,12.07
2019-05-07T02:42:34.643Z,19.77
2019-05-07T02:45:08.897Z,21.93
2019-05-07T02:47:39.359Z,18.45
2019-05-07T02:50:27.378Z,26.35
2019-05-07T02:52:59.405Z,21.45
2019-05-07T02:55:34.326Z,19.02
2019-05-07T02:58:04.785Z,18.42
2019-05-07T03:00:35.717Z,29.05
2019-05-07T03:03:06.094Z,26.48
2019-05-07T03:05:36.505Z,17.15
2019-05-07T03:08:06.890Z,12.07
2019-05-07T03:10:37.292Z,12.63
2019-05-07T03:13:07.746Z,24.95
2019-05-07T03:15:38.071Z,11.78
2019-05-07T03:18:08.602Z,9.35
2019-05-07T03:20:42.902Z,12.13
2019-05-07T03:23:14.205Z,14.40
2019-05-07T03:25:54.244Z,7.50
2019-05-07T03:28:25.468Z,14.35
2019-05-07T03:30:57.532Z,13.88
2019-05-07T03:33:47.043Z,19.65
2019-05-07T03:36:17.749Z,20.82
2019-05-07T03:38:48.295Z,22.07
2019-05-07T03:41:22.693Z,15.70
2019-05-07T03:43:52.766Z,11.55
2019-05-07T03:46:23.621Z,9.15
2019-05-07T03:48:54.129Z,15.50
2019-05-07T03:51:24.549Z,11.80
2019-05-07T03:53:55.023Z,8.28
2019-05-07T03:56:25.315Z,9.58
2019-05-07T03:58:55.670Z,7.45
2019-05-07T04:01:25.964Z,6.85
2019-05-07T04:03:56.345Z,7.50
2019-05-07T04:06:26.648Z,10.00
2019-05-07T04:08:57.067Z,8.50
2019-05-07T04:11:27.371Z,4.62
2019-05-07T04:13:57.719Z,6.70
2019-05-07T04:16:28.019Z,9.75
2019-05-07T04:19:00.076Z,4.53
2019-05-07T04:21:34.158Z,6.15
2019-05-07T04:24:19.726Z,11.25
2019-05-07T04:26:57.790Z,12.88
2019-05-07T04:29:28.242Z,15.00
2019-05-07T04:31:58.664Z,15.68
2019-05-07T04:34:46.592Z,19.75
2019-05-07T04:37:17.024Z,28.52
2019-05-07T04:39:54.113Z,23.27
2019-05-07T04:42:24.826Z,19.80
2019-05-07T04:44:55.328Z,20.30
2019-05-07T04:47:41.346Z,18.27
2019-05-07T04:49:57.819Z,17.27
2019-05-07T04:52:38.048Z,14.07
2019-05-07T04:55:08.745Z,18.40
2019-05-07T04:57:39.089Z,31.73
2019-05-07T05:00:13.468Z,20.32
2019-05-07T05:02:48.135Z,19.30
2019-05-07T05:05:19.190Z,9.20
2019-05-07T05:07:49.580Z,11.57
2019-05-07T05:10:22.761Z,10.10
2019-05-07T05:12:53.627Z,11.75
2019-05-07T05:15:24.376Z,15.50
2019-05-07T05:17:54.801Z,12.20
2019-05-07T05:20:30.724Z,11.73
2019-05-07T05:23:05.525Z,8.20
2019-05-07T05:25:37.951Z,6.08
2019-05-07T05:28:08.457Z,7.33
2019-05-07T05:30:43.377Z,7.87
2019-05-07T05:33:13.651Z,7.08
2019-05-07T05:35:43.996Z,6.10
2019-05-07T05:38:14.247Z,7.97
2019-05-07T05:40:44.585Z,9.40
2019-05-07T05:43:25.471Z,13.53
2019-05-07T05:45:58.959Z,13.78
2019-05-07T05:48:29.389Z,13.53
2019-05-07T05:51:04.084Z,9.80
2019-05-07T05:53:44.687Z,10.38
2019-05-07T05:56:18.784Z,12.53
2019-05-07T05:58:58.022Z,12.35
2019-05-07T06:01:32.036Z,17.42
2019-05-07T06:04:18.868Z,15.18
2019-05-07T06:07:07.653Z,10.98
2019-05-07T06:09:42.592Z,13.45
2019-05-07T06:12:14.611Z,13.03
2019-05-07T06:14:46.617Z,12.18
2019-05-07T06:17:32.069Z,10.32
2019-05-07T06:20:04.226Z,12.82
2019-05-07T06:22:37.203Z,10.40
2019-05-07T06:25:14.431Z,11.55
2019-05-07T06:27:41.822Z,13.85
2019-05-07T06:30:12.420Z,6.80
2019-05-07T06:32:43.130Z,11.97
2019-05-07T06:35:13.561Z,6.15
2019-05-07T06:37:44.970Z,8.20
2019-05-07T06:40:29.311Z,8.23
2019-05-07T06:43:05.450Z,7.75
2019-05-07T06:45:37.367Z,14.95
2019-05-07T06:48:07.845Z,16.32
2019-05-07T06:50:38.266Z,12.33
2019-05-07T06:53:08.913Z,11.95
2019-05-07T06:55:39.329Z,9.75
2019-05-07T06:58:12.196Z,12.55
2019-05-07T07:00:43.823Z,7.78
2019-05-07T07:03:22.355Z,9.38
2019-05-07T07:06:12.524Z,13.90
2019-05-07T07:08:52.640Z,9.45
2019-05-07T07:11:24.329Z,10.95
2019-05-07T07:13:55.071Z,11.00
2019-05-07T07:16:25.440Z,7.87
2019-05-07T07:18:56.109Z,9.60
2019-05-07T07:21:26.551Z,10.15
2019-05-07T07:23:57.948Z,13.90
2019-05-07T07:26:29.785Z,14.85
2019-05-07T07:29:02.059Z,9.90
2019-05-07T07:31:36.722Z,8.48
2019-05-07T07:34:07.527Z,6.65
2019-05-07T07:36:42.282Z,16.90
2019-05-07T07:39:12.688Z,8.08
2019-05-07T07:41:44.679Z,9.10
2019-05-07T07:44:15.051Z,9.73
2019-05-07T07:46:45.400Z,8.13
2019-05-07T07:49:15.963Z,11.35
2019-05-07T07:51:47.666Z,8.03
2019-05-07T07:54:18.111Z,7.12
2019-05-07T07:57:04.896Z,8.88
2019-05-07T07:59:42.762Z,7.97
2019-05-07T08:02:16.590Z,8.23
2019-05-07T08:04:47.253Z,9.18
2019-05-07T08:07:17.776Z,9.85
2019-05-07T08:09:48.173Z,10.00
2019-05-07T08:12:18.577Z,12.80
2019-05-07T08:14:49.033Z,12.03
2019-05-07T08:17:19.492Z,14.07
2019-05-07T08:19:51.989Z,12.25
2019-05-07T08:22:22.750Z,16.17
2019-05-07T08:24:54.290Z,9.95
2019-05-07T08:27:24.762Z,12.70
2019-05-07T08:29:55.354Z,14.87
2019-05-07T08:32:42.810Z,11.93
2019-05-07T08:38:38.402Z,13.08
2019-05-07T08:41:12.809Z,13.95
2019-05-07T08:43:43.415Z,9.13
2019-05-07T08:46:18.928Z,14.50
2019-05-07T08:48:52.801Z,7.45
2019-05-07T08:51:23.095Z,8.98
2019-05-07T08:54:05.659Z,12.65
2019-05-07T08:56:37.339Z,4.00
2019-05-07T08:59:08.099Z,15.83
2019-05-07T09:01:45.805Z,10.72
2019-05-07T09:04:18.865Z,11.60
2019-05-07T09:06:49.560Z,12.25
2019-05-07T09:09:22.040Z,7.62
2019-05-07T09:11:53.776Z,9.83
2019-05-07T09:14:26.271Z,12.45
2019-05-07T09:16:56.886Z,7.25
2019-05-07T09:19:28.373Z,8.85
2019-05-07T09:22:02.179Z,9.83
2019-05-07T09:24:35.686Z,8.63
2019-05-07T09:27:15.145Z,10.80
2019-05-07T09:29:47.903Z,11.57
2019-05-07T09:32:26.879Z,7.90
2019-05-07T09:35:02.273Z,10.08
2019-05-07T09:37:33.682Z,9.88
2019-05-07T09:40:05.550Z,12.05
2019-05-07T09:42:36.865Z,12.75
2019-05-07T09:45:09.233Z,12.63
2019-05-07T09:47:49.426Z,15.93
2019-05-07T09:50:16.862Z,12.37
2019-05-07T09:52:49.009Z,11.08
2019-05-07T09:55:20.224Z,13.72
2019-05-07T09:57:52.729Z,9.45
2019-05-07T10:00:24.349Z,12.43
2019-05-07T10:02:56.684Z,11.53
2019-05-07T10:05:28.758Z,6.65
2019-05-07T10:07:59.371Z,7.10
2019-05-07T10:10:32.932Z,6.72
2019-05-07T10:13:20.186Z,7.67
2019-05-07T10:15:52.622Z,10.58
2019-05-07T10:18:24.465Z,9.93
2019-05-07T10:20:54.927Z,11.20
2019-05-07T10:23:26.246Z,7.53
2019-05-07T10:25:56.699Z,10.93
2019-05-07T10:28:28.432Z,11.12
2019-05-07T10:31:00.818Z,12.37
2019-05-07T10:33:32.070Z,9.90
2019-05-07T10:36:03.208Z,14.33
2019-05-07T10:38:33.753Z,10.03
2019-05-07T10:41:04.501Z,8.58
2019-05-07T10:43:37.402Z,8.53
2019-05-07T10:46:27.590Z,6.33
2019-05-07T10:49:01.794Z,8.68
2019-05-07T10:51:32.344Z,11.95
2019-05-07T10:54:03.740Z,11.88
2019-05-07T10:56:34.310Z,11.95
2019-05-07T10:59:04.974Z,7.08
2019-05-07T11:01:45.948Z,15.23
2019-05-07T11:04:17.997Z,12.53
2019-05-07T11:06:49.731Z,12.30
2019-05-07T11:09:22.184Z,8.25
2019-05-07T11:11:52.633Z,12.63
2019-05-07T11:14:23.176Z,11.12
2019-05-07T11:16:55.295Z,15.60
2019-05-07T11:19:25.764Z,12.07
2019-05-07T11:21:58.091Z,11.53
2019-05-07T11:24:28.667Z,11.85
2019-05-07T11:26:59.762Z,7.03
2019-05-07T11:29:33.044Z,9.45
2019-05-07T11:32:03.469Z,12.13
2019-05-07T11:34:35.600Z,8.63
2019-05-07T11:37:06.072Z,15.32
2019-05-07T11:39:36.887Z,15.38
2019-05-07T11:42:22.000Z,9.90
2019-05-07T11:44:55.079Z,10.60
2019-05-07T11:47:31.834Z,10.70
2019-05-07T11:50:14.769Z,14.43
2019-05-07T11:52:48.049Z,10.05
2019-05-07T11:55:18.897Z,9.35
2019-05-07T11:57:51.840Z,14.43
2019-05-07T12:00:24.680Z,13.30
2019-05-07T12:02:55.427Z,17.92
2019-05-07T12:05:26.412Z,15.38
2019-05-07T12:07:58.996Z,16.25
2019-05-07T12:10:29.912Z,11.75
2019-05-07T12:13:02.352Z,15.03
2019-05-07T12:15:33.857Z,10.50
2019-05-07T12:18:05.284Z,17.57
2019-05-07T12:20:36.288Z,12.82
2019-05-07T12:23:06.819Z,8.13
2019-05-07T12:25:39.142Z,11.73
2019-05-07T12:28:13.284Z,19.00
2019-05-07T12:31:01.457Z,12.18
2019-05-07T12:33:39.545Z,13.65
2019-05-07T12:36:12.683Z,16.07
2019-05-07T12:38:44.553Z,16.25
2019-05-07T12:41:30.118Z,14.73
2019-05-07T12:44:02.774Z,16.12
2019-05-07T12:46:34.091Z,14.23
2019-05-07T12:49:05.143Z,22.60
2019-05-07T12:51:44.324Z,13.28
2019-05-07T12:54:16.594Z,20.85
2019-05-07T12:56:47.282Z,17.80
2019-05-07T12:59:18.004Z,20.20
2019-05-07T13:01:52.793Z,13.20
2019-05-07T13:04:25.142Z,14.38
2019-05-07T13:07:08.919Z,15.72
2019-05-07T13:09:39.433Z,19.98
2019-05-07T13:12:09.988Z,13.45
2019-05-07T13:14:41.000Z,15.40
2019-05-07T13:17:16.104Z,15.68
2019-05-07T13:19:48.779Z,14.28
2019-05-07T13:22:21.825Z,10.70
2019-05-07T13:24:52.964Z,11.83
2019-05-07T13:27:23.925Z,14.20
2019-05-07T13:29:54.785Z,16.05
2019-05-07T13:32:26.863Z,19.00
2019-05-07T13:34:58.334Z,13.00
2019-05-07T13:37:32.506Z,18.60
2019-05-07T13:40:06.766Z,21.42
2019-05-07T13:42:43.520Z,15.08
2019-05-07T13:45:31.840Z,16.55
2019-05-07T13:48:04.283Z,17.45
2019-05-07T13:50:35.191Z,15.58
2019-05-07T13:53:05.870Z,17.75
2019-05-07T13:55:39.027Z,18.23
2019-05-07T13:58:14.087Z,11.78
2019-05-07T14:00:46.985Z,13.83
2019-05-07T14:03:18.694Z,18.30
2019-05-07T14:05:51.583Z,15.05
2019-05-07T14:08:27.874Z,17.17
2019-05-07T14:10:59.139Z,29.40
2019-05-07T14:13:29.797Z,24.45
2019-05-07T14:16:12.047Z,24.80
2019-05-07T14:18:42.883Z,16.48
2019-05-07T14:21:13.703Z,23.65
2019-05-07T14:23:44.552Z,25.95
2019-05-07T14:26:14.998Z,17.35
2019-05-07T14:28:46.308Z,24.70
2019-05-07T14:31:17.536Z,17.57
2019-05-07T14:34:04.910Z,17.25
2019-05-07T14:36:37.827Z,17.92
2019-05-07T14:39:09.084Z,27.85
2019-05-07T14:41:39.702Z,19.15
2019-05-07T14:44:12.167Z,21.65
2019-05-07T14:46:50.208Z,17.87
2019-05-07T14:49:16.759Z,19.60
2019-05-07T14:51:47.318Z,17.27
2019-05-07T14:54:18.383Z,15.83
2019-05-07T14:56:48.964Z,12.25
2019-05-07T14:59:20.699Z,12.10
2019-05-07T15:01:52.228Z,16.77
2019-05-07T15:04:22.843Z,12.33
2019-05-07T15:06:53.975Z,19.92
2019-05-07T15:09:25.059Z,14.85
2019-05-07T15:11:55.930Z,20.27
2019-05-07T15:14:26.442Z,26.07
2019-05-07T15:16:59.598Z,21.33
2019-05-07T15:19:32.087Z,16.60
2019-05-07T15:22:20.327Z,28.92
2019-05-07T15:24:52.495Z,22.73
2019-05-07T15:27:23.591Z,33.73
2019-05-07T15:29:54.094Z,19.20
2019-05-07T15:32:24.578Z,15.25
2019-05-07T15:34:55.197Z,20.08
2019-05-07T15:37:27.900Z,19.48
2019-05-07T15:39:58.485Z,20.23
2019-05-07T15:42:28.929Z,18.32
2019-05-07T15:45:02.265Z,26.33
2019-05-07T15:47:34.446Z,17.50
2019-05-07T15:50:06.647Z,24.15
2019-05-07T15:52:41.601Z,27.75
2019-05-07T15:55:12.298Z,24.52
2019-05-07T15:57:42.885Z,23.05
2019-05-07T16:00:15.616Z,28.20
2019-05-07T16:02:47.658Z,26.17
2019-05-07T16:05:18.394Z,30.80
2019-05-07T16:07:49.999Z,14.25
2019-05-07T16:10:23.004Z,18.40
2019-05-07T16:12:53.200Z,14.43
2019-05-07T16:15:23.753Z,19.62
2019-05-07T16:17:55.793Z,26.45
2019-05-07T16:20:26.313Z,20.97
2019-05-07T16:23:12.081Z,20.45
2019-05-07T16:25:34.217Z,23.57
2019-05-07T16:28:05.090Z,20.48
2019-05-07T16:30:35.630Z,17.35
2019-05-07T16:33:06.014Z,17.62
2019-05-07T16:35:36.580Z,20.62
2019-05-07T16:38:06.992Z,19.57
2019-05-07T16:40:37.529Z,19.95
2019-05-07T16:43:07.962Z,32.67
2019-05-07T16:45:38.427Z,18.45
2019-05-07T16:48:08.907Z,13.05
2019-05-07T16:50:39.407Z,14.90
2019-05-07T16:53:12.108Z,13.93
2019-05-07T16:55:43.054Z,17.95
2019-05-07T16:58:15.159Z,26.35
2019-05-07T17:00:50.002Z,24.63
2019-05-07T17:03:22.075Z,18.95
2019-05-07T17:05:52.610Z,15.25
2019-05-07T17:08:24.704Z,22.73
2019-05-07T17:10:55.330Z,24.25
2019-05-07T17:13:25.861Z,26.02
2019-05-07T17:16:03.096Z,20.27
2019-05-07T17:18:32.875Z,17.90
2019-05-07T17:21:03.386Z,22.25
2019-05-07T17:23:44.009Z,15.23
2019-05-07T17:26:06.276Z,18.20
2019-05-07T17:28:36.773Z,17.17
2019-05-07T17:31:07.236Z,13.45
2019-05-07T17:33:37.689Z,22.30
2019-05-07T17:36:08.371Z,18.73
2019-05-07T17:38:38.821Z,19.25
2019-05-07T17:41:16.445Z,19.90
2019-05-07T17:43:41.460Z,29.07
2019-05-07T17:46:12.318Z,19.37
2019-05-07T17:48:44.300Z,29.07
2019-05-07T17:51:21.899Z,24.27
2019-05-07T17:53:59.401Z,22.45
2019-05-07T17:56:24.599Z,28.57
2019-05-07T17:58:55.060Z,38.60
2019-05-07T18:01:27.093Z,30.62
2019-05-07T18:03:57.942Z,32.38
2019-05-07T18:06:28.476Z,34.50
2019-05-07T18:08:58.947Z,31.93
2019-05-07T18:11:29.460Z,31.17
2019-05-07T18:13:59.953Z,27.85
2019-05-07T18:16:34.951Z,30.08
2019-05-07T18:19:05.441Z,34.05
2019-05-07T18:21:35.963Z,31.73
2019-05-07T18:24:13.586Z,27.62
2019-05-07T18:26:38.639Z,34.08
2019-05-07T18:29:09.018Z,34.70
2019-05-07T18:31:44.045Z,31.50
2019-05-07T18:34:14.512Z,23.60
2019-05-07T18:36:45.166Z,28.42
2019-05-07T18:39:15.519Z,31.90
2019-05-07T18:41:46.003Z,27.02
2019-05-07T18:44:16.511Z,20.82
2019-05-07T18:46:46.889Z,28.20
2019-05-07T18:49:17.264Z,21.50
2019-05-07T18:51:47.806Z,23.70
2019-05-07T18:54:27.750Z,20.70
2019-05-07T18:56:52.707Z,24.52
2019-05-07T18:59:24.162Z,25.20
2019-05-07T19:01:54.666Z,25.50
2019-05-07T19:04:25.131Z,29.07
2019-05-07T19:06:56.655Z,21.20
2019-05-07T19:09:27.183Z,20.77
2019-05-07T19:11:57.786Z,22.00
2019-05-07T19:14:28.273Z,24.45
2019-05-07T19:16:58.790Z,24.15
2019-05-07T19:19:29.236Z,25.80
2019-05-07T19:21:59.731Z,30.68
2019-05-07T19:24:42.284Z,26.20
2019-05-07T19:27:02.436Z,26.82
2019-05-07T19:29:32.941Z,41.10
2019-05-07T19:32:05.017Z,28.92
2019-05-07T19:34:35.432Z,33.33
2019-05-07T19:37:06.008Z,33.13
2019-05-07T19:39:36.464Z,29.67
2019-05-07T19:42:06.987Z,29.12
2019-05-07T19:44:37.451Z,32.70
2019-05-07T19:47:07.934Z,30.00
2019-05-07T19:49:38.366Z,34.35
2019-05-07T19:52:08.864Z,41.92
2019-05-07T19:54:39.268Z,40.33
2019-05-07T19:57:11.834Z,34.83
2019-05-07T19:59:42.867Z,42.80
2019-05-07T20:02:14.966Z,31.93
2019-05-07T20:04:45.360Z,33.30
2019-05-07T20:07:15.884Z,32.03
2019-05-07T20:09:46.306Z,25.80
2019-05-07T20:12:16.785Z,24.32
2019-05-07T20:14:47.239Z,34.10
2019-05-07T20:17:17.711Z,32.85
2019-05-07T20:19:48.108Z,33.20
2019-05-07T20:22:18.485Z,32.17
2019-05-07T20:24:48.917Z,26.37
2019-05-07T20:27:19.409Z,32.25
2019-05-07T20:29:52.147Z,33.28
2019-05-07T20:32:22.545Z,41.48
2019-05-07T20:34:53.021Z,44.67
2019-05-07T20:37:23.589Z,45.45
2019-05-07T20:39:54.015Z,46.58
2019-05-07T20:42:26.199Z,44.05
2019-05-07T20:44:56.602Z,42.90
2019-05-07T20:47:27.078Z,58.45
2019-05-07T20:49:57.512Z,54.13
2019-05-07T20:52:28.698Z,47.00
2019-05-07T20:55:06.715Z,65.08
2019-05-07T20:57:38.765Z,55.95
2019-05-07T21:00:13.990Z,51.65
2019-05-07T21:02:48.078Z,44.70
2019-05-07T21:05:16.599Z,44.85
2019-05-07T21:07:47.074Z,66.92
2019-05-07T21:10:17.501Z,56.42
2019-05-07T21:12:48.128Z,46.65
2019-05-07T21:15:18.542Z,47.08
2019-05-07T21:17:49.036Z,44.67
2019-05-07T21:20:19.518Z,33.55
2019-05-07T21:22:51.906Z,41.18
2019-05-07T21:25:22.683Z,24.30
2019-05-07T21:27:53.255Z,27.70
2019-05-07T21:30:23.692Z,38.80
2019-05-07T21:32:54.146Z,33.55
2019-05-07T21:35:24.583Z,33.38
2019-05-07T21:37:55.204Z,34.45
2019-05-07T21:40:25.630Z,34.50
2019-05-07T21:42:56.127Z,33.78
2019-05-07T21:45:26.572Z,29.27
2019-05-07T21:47:57.071Z,39.03
2019-05-07T21:50:27.491Z,40.85
2019-05-07T21:53:02.870Z,24.20
2019-05-07T21:55:34.916Z,30.05
2019-05-07T21:58:24.637Z,25.10
2019-05-07T22:01:08.929Z,23.02
2019-05-07T22:03:43.149Z,19.42
2019-05-07T22:06:13.696Z,18.55
2019-05-07T22:08:44.076Z,18.32
2019-05-07T22:11:14.399Z,20.05
2019-05-07T22:13:44.893Z,17.25
2019-05-07T22:16:15.305Z,17.82
2019-05-07T22:18:46.316Z,16.73
2019-05-07T22:21:16.708Z,17.55
2019-05-07T22:23:47.195Z,16.55
2019-05-07T22:26:22.873Z,21.42
2019-05-07T22:28:53.876Z,14.68
2019-05-07T22:31:26.272Z,19.27
2019-05-07T22:34:12.712Z,17.82
2019-05-07T22:36:43.141Z,20.52
2019-05-07T22:39:13.728Z,21.33
2019-05-07T22:41:45.033Z,29.10
2019-05-07T22:44:15.548Z,23.32
2019-05-07T22:46:45.979Z,28.27
2019-05-07T22:49:16.476Z,30.20
2019-05-07T22:51:46.879Z,29.63
2019-05-07T22:54:17.376Z,31.02
2019-05-07T22:56:58.185Z,30.72
2019-05-07T22:59:28.694Z,24.37
2019-05-07T23:01:59.105Z,22.55
2019-05-07T23:04:29.574Z,20.60
2019-05-07T23:07:02.149Z,18.77
2019-05-07T23:09:32.120Z,23.45
2019-05-07T23:12:02.562Z,21.62
2019-05-07T23:14:33.159Z,21.97
2019-05-07T23:17:03.538Z,24.37
2019-05-07T23:19:34.020Z,25.35
2019-05-07T23:22:04.448Z,18.55
2019-05-07T23:24:34.942Z,19.70
2019-05-07T23:27:05.356Z,22.22
2019-05-07T23:29:35.841Z,22.73
2019-05-07T23:32:06.287Z,20.82
2019-05-07T23:34:36.762Z,19.45
2019-05-07T23:37:07.197Z,21.95
2019-05-07T23:39:39.308Z,15.60
2019-05-07T23:42:12.670Z,16.27
2019-05-07T23:44:43.178Z,16.17
2019-05-07T23:47:13.630Z,16.42
2019-05-07T23:49:44.093Z,14.10
2019-05-07T23:52:14.517Z,21.37
2019-05-07T23:54:45.003Z,23.60
2019-05-07T23:57:15.607Z,32.50
2019-05-07T23:59:46.114Z,25.57
